createdAt,value
2022-09-28T00:02:26.783Z,9.00
2022-09-28T00:05:19.424Z,9.70
2022-09-28T00:08:11.560Z,10.20
2022-09-28T00:11:05.016Z,10.10
2022-09-28T00:14:03.701Z,9.00
2022-09-28T00:16:56.257Z,9.00
2022-09-28T00:19:48.541Z,8.70
2022-09-28T00:22:46.475Z,8.60
2022-09-28T00:25:38.863Z,9.20
2022-09-28T00:28:11.816Z,7.10
2022-09-28T00:31:04.190Z,7.80
2022-09-28T00:33:57.969Z,8.50
2022-09-28T00:36:51.031Z,8.40
2022-09-28T00:39:44.262Z,8.40
2022-09-28T00:42:29.390Z,8.90
2022-09-28T00:45:22.874Z,8.80
2022-09-28T00:48:15.143Z,8.70
2022-09-28T00:51:13.844Z,9.30
2022-09-28T00:54:08.767Z,8.60
2022-09-28T00:57:02.337Z,8.50
2022-09-28T00:59:47.893Z,8.30
2022-09-28T01:02:40.802Z,8.60
2022-09-28T01:05:33.989Z,8.70
2022-09-28T01:08:28.535Z,8.90
2022-09-28T01:11:22.081Z,8.60
2022-09-28T01:14:18.169Z,8.60
2022-09-28T01:17:09.698Z,8.40
2022-09-28T01:20:28.766Z,8.80
2022-09-28T01:23:47.169Z,9.90
2022-09-28T01:27:12.882Z,8.30
2022-09-28T01:30:08.989Z,8.30
2022-09-28T01:33:08.844Z,8.40
2022-09-28T01:35:54.100Z,8.90
2022-09-28T01:38:49.234Z,7.70
2022-09-28T01:41:44.951Z,8.50
2022-09-28T01:44:46.237Z,9.30
2022-09-28T01:47:41.770Z,8.60
2022-09-28T01:50:39.967Z,8.60
2022-09-28T01:53:40.498Z,9.10
2022-09-28T01:56:40.940Z,8.40
2022-09-28T01:59:38.110Z,7.90
2022-09-28T02:02:39.368Z,6.90
2022-09-28T02:05:38.217Z,8.20
2022-09-28T02:08:34.552Z,7.10
2022-09-28T02:11:26.758Z,8.60
2022-09-28T02:14:21.808Z,8.00
2022-09-28T02:17:16.220Z,7.80
2022-09-28T02:20:10.033Z,7.60
2022-09-28T02:23:03.157Z,8.90
2022-09-28T02:25:49.900Z,8.40
2022-09-28T02:28:33.090Z,7.10
2022-09-28T02:31:25.233Z,7.60
2022-09-28T02:34:17.434Z,7.80
2022-09-28T02:37:09.830Z,7.40
2022-09-28T02:40:02.051Z,8.50
2022-09-28T02:43:03.210Z,6.90
2022-09-28T02:46:03.241Z,7.00
2022-09-28T02:49:21.346Z,8.20
2022-09-28T02:52:43.071Z,7.90
2022-09-28T02:55:50.223Z,8.60
2022-09-28T02:58:51.981Z,7.70
2022-09-28T03:01:54.124Z,7.20
2022-09-28T03:04:52.667Z,7.80
2022-09-28T03:07:53.358Z,8.30
2022-09-28T03:10:50.108Z,8.50
2022-09-28T03:13:42.985Z,7.00
2022-09-28T03:16:35.162Z,7.90
2022-09-28T03:19:32.526Z,7.10
2022-09-28T03:22:25.853Z,6.90
2022-09-28T03:25:17.874Z,7.70
2022-09-28T03:28:12.736Z,8.10
2022-09-28T03:31:04.876Z,6.40
2022-09-28T03:33:56.963Z,8.20
2022-09-28T03:36:49.003Z,7.40
2022-09-28T03:39:40.971Z,6.40
2022-09-28T03:42:33.039Z,8.90
2022-09-28T03:45:25.155Z,7.30
2022-09-28T03:48:20.556Z,7.80
2022-09-28T03:51:15.664Z,6.10
2022-09-28T03:54:08.042Z,7.20
2022-09-28T03:57:00.138Z,7.40
2022-09-28T03:59:52.252Z,6.60
2022-09-28T04:02:46.530Z,7.50
2022-09-28T04:05:28.349Z,7.70
2022-09-28T04:08:20.552Z,7.90
2022-09-28T04:11:12.816Z,7.20
2022-09-28T04:13:57.855Z,8.00
2022-09-28T04:16:52.285Z,7.20
2022-09-28T04:19:47.515Z,6.90
2022-09-28T04:22:51.365Z,8.40
2022-09-28T04:25:46.083Z,7.80
2022-09-28T04:28:55.394Z,7.00
2022-09-28T04:31:49.759Z,6.90
2022-09-28T04:34:29.808Z,7.80
2022-09-28T04:37:23.941Z,7.10
2022-09-28T04:40:16.194Z,8.80
2022-09-28T04:43:09.026Z,7.50
2022-09-28T04:46:02.869Z,7.00
2022-09-28T04:48:54.871Z,7.90
2022-09-28T04:52:05.294Z,6.60
2022-09-28T04:54:57.254Z,7.40
2022-09-28T04:57:49.495Z,7.50
2022-09-28T05:00:41.607Z,8.00
2022-09-28T05:03:39.833Z,7.80
2022-09-28T05:06:40.561Z,7.30
2022-09-28T05:09:37.685Z,9.70
2022-09-28T05:12:30.513Z,8.20
2022-09-28T05:15:22.505Z,7.20
2022-09-28T05:18:14.449Z,6.90
2022-09-28T05:21:16.490Z,7.10
2022-09-28T05:24:08.870Z,7.10
2022-09-28T05:27:00.948Z,8.20
2022-09-28T05:29:53.056Z,7.40
2022-09-28T05:32:44.254Z,9.50
2022-09-28T05:35:36.256Z,8.40
2022-09-28T05:38:28.490Z,10.30
2022-09-28T05:41:12.144Z,9.70
2022-09-28T05:44:04.679Z,11.20
2022-09-28T05:46:54.191Z,9.40
2022-09-28T05:49:36.227Z,10.10
2022-09-28T05:52:28.344Z,8.60
2022-09-28T05:55:20.421Z,9.50
2022-09-28T05:58:12.779Z,9.40
2022-09-28T06:01:04.762Z,11.00
2022-09-28T06:03:56.748Z,9.40
2022-09-28T06:06:41.278Z,9.90
2022-09-28T06:09:33.322Z,10.60
2022-09-28T06:12:25.798Z,10.60
2022-09-28T06:15:18.473Z,11.10
2022-09-28T06:18:14.231Z,10.10
2022-09-28T06:21:08.334Z,11.10
2022-09-28T06:24:00.286Z,10.00
2022-09-28T06:26:52.327Z,10.30
2022-09-28T06:29:44.300Z,9.50
2022-09-28T06:32:36.354Z,10.40
2022-09-28T06:35:30.376Z,12.30
2022-09-28T06:38:22.340Z,11.70
2022-09-28T06:41:14.841Z,11.60
2022-09-28T06:43:57.137Z,12.90
2022-09-28T06:46:47.267Z,11.20
2022-09-28T06:49:41.967Z,11.70
2022-09-28T06:52:39.619Z,10.60
2022-09-28T06:55:31.766Z,11.10
2022-09-28T06:58:24.193Z,10.40
2022-09-28T07:01:16.257Z,12.20
2022-09-28T07:04:08.361Z,12.20
2022-09-28T07:06:59.185Z,12.50
2022-09-28T07:10:13.007Z,10.30
2022-09-28T07:13:10.494Z,12.90
2022-09-28T07:15:57.047Z,13.30
2022-09-28T07:18:42.328Z,14.80
2022-09-28T07:21:34.775Z,12.30
2022-09-28T07:24:19.957Z,9.50
2022-09-28T07:27:23.433Z,10.30
2022-09-28T07:30:09.313Z,11.30
2022-09-28T07:32:59.353Z,9.80
2022-09-28T07:35:55.742Z,7.00
2022-09-28T07:38:47.694Z,8.20
2022-09-28T07:41:39.976Z,8.20
2022-09-28T07:44:32.167Z,6.00
2022-09-28T07:47:30.814Z,8.70
2022-09-28T07:50:34.843Z,5.00
2022-09-28T07:53:36.065Z,5.10
2022-09-28T07:56:28.087Z,4.60
2022-09-28T07:59:23.035Z,6.20
2022-09-28T08:02:20.344Z,6.20
2022-09-28T08:05:12.546Z,4.60
2022-09-28T08:08:06.971Z,6.50
2022-09-28T08:10:53.708Z,4.40
2022-09-28T08:13:48.882Z,3.70
2022-09-28T08:16:40.920Z,3.00
2022-09-28T08:19:51.227Z,3.70
2022-09-28T08:22:43.177Z,3.30
2022-09-28T08:25:38.371Z,4.90
2022-09-28T08:28:30.462Z,3.40
2022-09-28T08:31:07.816Z,2.60
2022-09-28T08:34:14.878Z,4.30
2022-09-28T08:37:22.083Z,4.00
2022-09-28T08:40:29.046Z,8.90
2022-09-28T08:43:43.759Z,4.00
2022-09-28T08:46:43.466Z,4.10
2022-09-28T08:49:44.287Z,3.10
2022-09-28T08:52:44.128Z,3.70
2022-09-28T08:55:45.438Z,4.80
2022-09-28T08:58:42.574Z,3.30
2022-09-28T09:01:41.385Z,5.60
2022-09-28T09:04:35.140Z,4.00
2022-09-28T09:07:49.327Z,2.80
2022-09-28T09:10:51.277Z,4.70
2022-09-28T09:14:01.939Z,3.40
2022-09-28T09:17:03.258Z,2.10
2022-09-28T09:20:07.300Z,3.00
2022-09-28T09:23:05.756Z,2.90
2022-09-28T09:25:54.912Z,3.80
2022-09-28T09:29:06.981Z,3.00
2022-09-28T09:32:17.781Z,3.50
2022-09-28T09:35:31.508Z,3.10
2022-09-28T09:38:39.808Z,2.90
2022-09-28T09:41:43.647Z,3.20
2022-09-28T09:44:53.334Z,3.10
2022-09-28T09:48:01.145Z,3.00
2022-09-28T09:50:57.417Z,5.90
2022-09-28T09:56:49.106Z,1.50
2022-09-28T09:59:45.948Z,1.80
2022-09-28T10:02:51.990Z,2.40
2022-09-28T10:05:49.489Z,2.40
2022-09-28T10:08:47.207Z,4.50
2022-09-28T10:11:44.118Z,2.50
2022-09-28T10:14:36.583Z,2.30
2022-09-28T10:17:28.596Z,1.50
2022-09-28T10:20:38.971Z,1.50
2022-09-28T10:23:37.226Z,2.70
2022-09-28T10:26:35.534Z,3.10
2022-09-28T10:29:35.973Z,2.50
2022-09-28T10:32:37.716Z,4.10
2022-09-28T10:35:41.811Z,1.70
2022-09-28T10:38:34.807Z,1.70
2022-09-28T10:41:33.317Z,3.10
2022-09-28T10:44:22.455Z,1.40
2022-09-28T10:47:26.164Z,2.20
2022-09-28T10:50:25.507Z,2.10
2022-09-28T10:53:23.571Z,2.00
2022-09-28T10:56:32.904Z,2.00
2022-09-28T10:59:40.270Z,2.00
2022-09-28T11:02:35.941Z,2.00
2022-09-28T11:05:30.056Z,3.90
2022-09-28T11:08:26.495Z,1.90
2022-09-28T11:11:20.535Z,2.20
2022-09-28T11:14:26.989Z,3.20
2022-09-28T11:17:26.476Z,3.60
2022-09-28T11:20:35.590Z,9.60
2022-09-28T11:23:32.224Z,1.90
2022-09-28T11:26:25.344Z,3.50
2022-09-28T11:29:36.000Z,1.00
2022-09-28T11:32:45.689Z,3.30
2022-09-28T11:36:06.543Z,1.40
2022-09-28T11:39:08.804Z,1.60
2022-09-28T11:42:25.053Z,2.80
2022-09-28T11:45:33.846Z,2.70
2022-09-28T11:48:31.564Z,2.80
2022-09-28T11:51:27.622Z,1.70
2022-09-28T11:54:28.993Z,0.80
2022-09-28T11:57:28.919Z,4.30
2022-09-28T12:00:23.354Z,1.00
2022-09-28T12:03:02.573Z,1.70
2022-09-28T12:06:01.262Z,1.20
2022-09-28T12:08:53.777Z,7.40
2022-09-28T12:14:42.426Z,1.80
2022-09-28T12:17:23.433Z,1.50
2022-09-28T12:20:21.786Z,1.50
2022-09-28T12:23:03.789Z,2.00
2022-09-28T12:26:00.247Z,1.70
2022-09-28T12:28:56.756Z,2.40
2022-09-28T12:31:42.248Z,2.10
2022-09-28T12:34:34.598Z,1.40
2022-09-28T12:37:54.501Z,2.90
2022-09-28T12:40:56.407Z,1.20
2022-09-28T12:43:54.590Z,1.00
2022-09-28T12:46:57.484Z,1.80
2022-09-28T12:52:47.167Z,1.60
2022-09-28T12:56:01.275Z,1.60
2022-09-28T12:59:06.793Z,2.30
2022-09-28T13:02:20.542Z,1.80
2022-09-28T13:05:38.847Z,1.90
2022-09-28T13:08:41.017Z,4.60
2022-09-28T13:11:41.658Z,1.10
2022-09-28T13:15:09.934Z,7.20
2022-09-28T13:18:09.431Z,4.70
2022-09-28T13:21:24.064Z,1.80
2022-09-28T13:24:14.395Z,23.60
2022-09-28T13:27:17.322Z,10.00
2022-09-28T13:29:55.687Z,1.90
2022-09-28T13:32:51.732Z,0.90
2022-09-28T13:35:46.046Z,2.30
2022-09-28T13:38:53.025Z,1.10
2022-09-28T13:41:50.753Z,1.30
2022-09-28T13:48:12.636Z,2.10
2022-09-28T13:51:17.081Z,3.20
2022-09-28T13:54:26.082Z,0.90
2022-09-28T13:57:26.105Z,1.80
2022-09-28T14:00:24.754Z,1.80
2022-09-28T14:03:28.844Z,2.10
2022-09-28T14:06:29.786Z,2.00
2022-09-28T14:09:43.775Z,3.70
2022-09-28T14:12:51.613Z,2.70
2022-09-28T14:15:48.105Z,3.00
2022-09-28T14:18:33.603Z,4.50
2022-09-28T14:21:36.239Z,2.00
2022-09-28T14:24:46.061Z,4.10
2022-09-28T14:28:05.009Z,1.10
2022-09-28T14:30:59.768Z,1.70
2022-09-28T14:34:00.135Z,2.30
2022-09-28T14:37:06.957Z,1.80
2022-09-28T14:40:01.548Z,2.50
2022-09-28T14:43:25.412Z,2.50
2022-09-28T14:46:40.569Z,2.60
2022-09-28T14:50:00.814Z,2.80
2022-09-28T14:52:48.087Z,1.60
2022-09-28T14:55:50.414Z,7.60
2022-09-28T14:58:33.712Z,2.80
2022-09-28T15:01:21.325Z,2.20
2022-09-28T15:04:15.878Z,2.30
2022-09-28T15:07:07.929Z,2.80
2022-09-28T15:10:02.775Z,2.20
2022-09-28T15:12:56.123Z,2.30
2022-09-28T15:15:42.373Z,3.10
2022-09-28T15:18:59.262Z,3.10
2022-09-28T15:21:52.474Z,4.70
2022-09-28T15:24:59.952Z,3.10
2022-09-28T15:27:56.529Z,4.00
2022-09-28T15:30:49.226Z,4.50
2022-09-28T15:34:01.588Z,4.60
2022-09-28T15:36:56.494Z,3.90
2022-09-28T15:39:48.766Z,5.50
2022-09-28T15:42:39.307Z,4.40
2022-09-28T15:45:36.758Z,3.20
2022-09-28T15:48:32.478Z,3.10
2022-09-28T15:51:15.920Z,3.40
2022-09-28T15:54:19.725Z,6.70
2022-09-28T15:57:33.400Z,4.60
2022-09-28T16:00:29.585Z,2.80
2022-09-28T16:03:20.271Z,3.90
2022-09-28T16:06:13.780Z,2.70
2022-09-28T16:08:49.541Z,3.60
2022-09-28T16:11:40.735Z,5.60
2022-09-28T16:17:20.002Z,3.30
2022-09-28T16:19:54.582Z,2.90
2022-09-28T16:22:28.887Z,4.30
2022-09-28T16:25:03.143Z,4.40
2022-09-28T16:27:43.641Z,3.50
2022-09-28T16:30:36.489Z,4.20
2022-09-28T16:33:39.199Z,6.50
2022-09-28T16:36:27.501Z,5.30
2022-09-28T16:39:20.713Z,4.70
2022-09-28T16:42:14.556Z,5.30
2022-09-28T16:44:46.950Z,5.50
2022-09-28T16:47:40.589Z,3.30
2022-09-28T16:50:32.985Z,3.60
2022-09-28T16:53:43.205Z,4.30
2022-09-28T16:56:36.846Z,4.60
2022-09-28T16:59:13.891Z,7.10
2022-09-28T17:02:46.316Z,5.10
2022-09-28T17:05:31.759Z,6.20
2022-09-28T17:08:25.818Z,2.60
2022-09-28T17:11:24.274Z,4.00
2022-09-28T17:14:17.097Z,6.70
2022-09-28T17:17:12.665Z,4.20
2022-09-28T17:20:17.023Z,2.80
2022-09-28T17:23:09.359Z,3.10
2022-09-28T17:26:02.775Z,4.20
2022-09-28T17:28:46.011Z,4.00
2022-09-28T17:31:38.196Z,3.10
2022-09-28T17:34:30.369Z,3.60
2022-09-28T17:37:22.484Z,4.40
2022-09-28T17:40:22.146Z,3.30
2022-09-28T17:43:14.639Z,4.20
2022-09-28T17:46:26.249Z,4.90
2022-09-28T17:49:19.298Z,4.70
2022-09-28T17:52:11.266Z,4.20
2022-09-28T17:55:03.621Z,5.50
2022-09-28T17:57:48.784Z,4.50
2022-09-28T18:00:41.060Z,4.00
2022-09-28T18:03:33.324Z,22.80
2022-09-28T18:06:25.893Z,9.30
2022-09-28T18:09:25.129Z,7.00
2022-09-28T18:12:18.354Z,4.20
2022-09-28T18:15:12.957Z,5.20
2022-09-28T18:18:09.531Z,5.30
2022-09-28T18:21:02.876Z,4.40
2022-09-28T18:23:45.465Z,2.50
2022-09-28T18:26:28.331Z,3.20
2022-09-28T18:29:21.328Z,3.10
2022-09-28T18:32:14.277Z,5.10
2022-09-28T18:35:10.264Z,3.50
2022-09-28T18:38:05.406Z,5.00
2022-09-28T18:40:58.180Z,5.30
2022-09-28T18:43:45.057Z,3.70
2022-09-28T18:46:28.329Z,3.40
2022-09-28T18:49:21.238Z,3.60
2022-09-28T18:52:13.950Z,5.10
2022-09-28T18:55:07.894Z,4.30
2022-09-28T18:58:00.512Z,4.30
2022-09-28T19:00:53.828Z,4.90
2022-09-28T19:03:53.131Z,5.50
2022-09-28T19:06:47.606Z,5.60
2022-09-28T19:09:43.982Z,5.30
2022-09-28T19:12:36.394Z,5.40
2022-09-28T19:15:29.555Z,5.90
2022-09-28T19:18:22.441Z,6.20
2022-09-28T19:21:16.757Z,3.30
2022-09-28T19:24:07.824Z,3.70
2022-09-28T19:26:54.507Z,6.10
2022-09-28T19:29:46.512Z,4.40
2022-09-28T19:32:39.151Z,4.00
2022-09-28T19:35:31.243Z,5.30
2022-09-28T19:38:23.339Z,4.70
2022-09-28T19:41:39.406Z,5.00
2022-09-28T19:44:36.487Z,5.90
2022-09-28T19:47:28.819Z,6.70
2022-09-28T19:50:20.901Z,6.80
2022-09-28T19:53:12.868Z,6.70
2022-09-28T19:56:06.191Z,5.50
2022-09-28T19:58:58.317Z,5.70
2022-09-28T20:01:52.079Z,6.30
2022-09-28T20:04:44.149Z,5.50
2022-09-28T20:07:36.839Z,6.10
2022-09-28T20:10:28.846Z,5.90
2022-09-28T20:13:21.503Z,5.10
2022-09-28T20:16:15.536Z,4.50
2022-09-28T20:19:07.885Z,4.10
2022-09-28T20:22:03.287Z,5.60
2022-09-28T20:24:55.518Z,4.00
2022-09-28T20:27:47.507Z,5.30
2022-09-28T20:30:39.783Z,4.40
2022-09-28T20:33:33.768Z,4.90
2022-09-28T20:36:26.902Z,4.90
2022-09-28T20:39:19.099Z,3.30
2022-09-28T20:42:11.758Z,4.20
2022-09-28T20:45:03.941Z,4.90
2022-09-28T20:47:46.887Z,3.20
2022-09-28T20:50:38.939Z,3.60
2022-09-28T20:53:31.356Z,4.90
2022-09-28T20:56:25.003Z,3.70
2022-09-28T20:59:17.325Z,2.60
2022-09-28T21:01:59.367Z,3.00
2022-09-28T21:04:51.424Z,2.40
2022-09-28T21:07:43.505Z,3.90
2022-09-28T21:10:35.555Z,2.50
2022-09-28T21:13:28.528Z,4.10
2022-09-28T21:16:20.784Z,3.50
2022-09-28T21:19:12.753Z,3.40
2022-09-28T21:22:04.833Z,3.50
2022-09-28T21:24:56.568Z,2.30
2022-09-28T21:27:48.754Z,3.10
2022-09-28T21:30:41.583Z,2.90
2022-09-28T21:33:33.690Z,2.40
2022-09-28T21:36:26.348Z,1.70
2022-09-28T21:39:10.814Z,2.20
2022-09-28T21:42:03.866Z,1.50
2022-09-28T21:44:59.373Z,2.10
2022-09-28T21:47:53.958Z,2.00
2022-09-28T21:50:44.692Z,3.40
2022-09-28T21:53:38.588Z,2.50
2022-09-28T21:56:30.822Z,2.60
2022-09-28T21:59:22.893Z,2.80
2022-09-28T22:02:14.961Z,3.40
2022-09-28T22:05:08.472Z,2.10
2022-09-28T22:08:01.169Z,1.90
2022-09-28T22:11:01.946Z,2.60
2022-09-28T22:13:56.075Z,2.90
2022-09-28T22:16:48.059Z,2.50
2022-09-28T22:19:41.715Z,2.00
2022-09-28T22:22:33.763Z,2.20
2022-09-28T22:25:09.553Z,1.90
2022-09-28T22:27:54.418Z,2.30
2022-09-28T22:30:46.835Z,3.00
2022-09-28T22:33:39.733Z,2.20
2022-09-28T22:36:32.606Z,1.70
2022-09-28T22:39:24.567Z,1.50
2022-09-28T22:42:17.515Z,4.00
2022-09-28T22:45:10.358Z,2.30
2022-09-28T22:48:03.497Z,1.90
2022-09-28T22:50:55.499Z,4.30
2022-09-28T22:53:48.302Z,2.40
2022-09-28T22:56:40.263Z,2.00
2022-09-28T22:59:33.041Z,2.70
2022-09-28T23:02:14.905Z,2.30
2022-09-28T23:05:08.165Z,4.20
2022-09-28T23:08:00.219Z,4.20
2022-09-28T23:10:52.543Z,3.80
2022-09-28T23:13:26.681Z,4.70
2022-09-28T23:16:11.613Z,2.70
2022-09-28T23:19:03.762Z,2.40
2022-09-28T23:21:58.629Z,2.50
2022-09-28T23:24:50.616Z,2.00
2022-09-28T23:27:47.707Z,1.40
2022-09-28T23:30:42.230Z,1.50
2022-09-28T23:33:34.455Z,1.40
2022-09-28T23:36:26.712Z,3.40
2022-09-28T23:39:18.814Z,1.60
2022-09-28T23:42:10.921Z,1.90
2022-09-28T23:45:02.959Z,1.80
2022-09-28T23:47:54.959Z,1.80
2022-09-28T23:50:47.678Z,3.20
2022-09-28T23:53:39.769Z,1.60
2022-09-28T23:56:31.761Z,1.70
2022-09-28T23:59:23.854Z,2.80
